Time;durP1;ratioP1;P1;durP2;ratioP2;P2;SDS_P1;SDS_P2;PMS_P1;PMS_P2;Temp;Humidity;BMP_temperature;BMP_pressure;BME280_temperature;BME280_humidity;BME280_pressure;Samples;Min_cycle;Max_cycle;Signal;HPM_P1;HPM_P2
2022/06/25 00:06:59;;;;;;;2.63;1.10;;;18.80;99.90;;;;;;20882634;28;20052;-39
2022/06/25 00:17:00;;;;;;;2.00;0.80;;;18.80;99.90;;;;;;20879026;28;20364;-39
2022/06/25 00:27:01;;;;;;;1.77;0.75;;;18.80;99.90;;;;;;20885466;28;20044;-39
2022/06/25 00:37:03;;;;;;;1.83;0.98;;;18.80;99.90;;;;;;20882512;28;20043;-39
2022/06/25 00:47:14;;;;;;;1.88;0.85;;;18.70;99.90;;;;;;20876765;28;20139;-39
2022/06/25 00:57:26;;;;;;;2.00;0.90;;;18.60;99.90;;;;;;20877262;28;20051;-39
2022/06/25 01:07:27;;;;;;;2.13;0.93;;;18.60;99.90;;;;;;20876433;28;20539;-39
2022/06/25 01:17:29;;;;;;;1.95;0.90;;;18.50;99.90;;;;;;20871192;28;20807;-39
2022/06/25 01:27:30;;;;;;;2.40;1.20;;;18.50;99.90;;;;;;20898000;28;20611;-39
2022/06/25 01:37:32;;;;;;;1.85;1.00;;;18.40;99.90;;;;;;20899713;28;20037;-39
2022/06/25 01:47:33;;;;;;;1.55;0.90;;;18.30;99.90;;;;;;20898852;28;20047;-39
2022/06/25 01:57:34;;;;;;;2.95;1.10;;;18.30;99.90;;;;;;11403384;22;20057;-81
2022/06/25 02:07:35;;;;;;;2.47;1.08;;;18.30;99.90;;;;;;20845459;28;20493;-80
2022/06/25 02:17:37;;;;;;;2.55;1.00;;;18.30;99.90;;;;;;20873223;28;20114;-81
2022/06/25 02:27:38;;;;;;;1.80;0.88;;;18.20;99.90;;;;;;20885974;28;20592;-81
2022/06/25 02:37:39;;;;;;;1.67;0.80;;;18.00;99.90;;;;;;20890402;28;20040;-81
2022/06/25 02:47:40;;;;;;;2.00;0.75;;;17.90;99.90;;;;;;20874129;28;20048;-81
2022/06/25 03:08:02;;;;;;;1.73;0.88;;;17.90;99.90;;;;;;20738365;28;20041;-81
2022/06/25 03:18:03;;;;;;;4.13;1.35;;;17.80;99.90;;;;;;20706410;28;20045;-81
2022/06/25 03:28:06;;;;;;;2.90;1.13;;;17.70;99.90;;;;;;20719541;28;20480;-81
2022/06/25 03:38:07;;;;;;;3.50;1.15;;;17.70;99.90;;;;;;20720856;28;20516;-81
2022/06/25 03:48:08;;;;;;;1.77;0.77;;;17.70;99.90;;;;;;20702972;28;20620;-81
2022/06/25 03:58:09;;;;;;;1.70;0.82;;;17.70;99.90;;;;;;20690119;28;20152;-81
2022/06/25 04:08:12;;;;;;;1.42;0.60;;;17.70;99.90;;;;;;20702081;28;20109;-81
2022/06/25 04:18:13;;;;;;;1.75;0.50;;;17.80;99.90;;;;;;20706904;28;20460;-81
2022/06/25 04:38:33;;;;;;;2.20;0.93;;;18.00;99.90;;;;;;20713145;28;20142;-81
2022/06/25 04:48:34;;;;;;;1.50;0.82;;;18.20;99.90;;;;;;20713651;28;20057;-81
2022/06/25 04:58:39;;;;;;;1.45;0.55;;;18.30;99.90;;;;;;20733866;28;20143;-80
2022/06/25 05:08:40;;;;;;;1.88;0.82;;;18.60;99.90;;;;;;20697015;28;20048;-80
2022/06/25 05:18:41;;;;;;;1.42;0.55;;;18.70;99.90;;;;;;20714312;28;20037;-80
2022/06/25 05:28:43;;;;;;;0.90;0.40;;;18.60;99.90;;;;;;20721171;28;20100;-80
2022/06/25 05:38:44;;;;;;;1.02;0.40;;;18.60;99.90;;;;;;20743530;28;20500;-80
2022/06/25 05:48:45;;;;;;;1.80;0.70;;;18.60;99.90;;;;;;20744942;28;20046;-80
2022/06/25 05:58:46;;;;;;;1.98;0.57;;;18.70;99.90;;;;;;20717183;28;20046;-80
2022/06/25 06:08:47;;;;;;;1.58;0.63;;;19.00;99.90;;;;;;20683852;28;20049;-81
2022/06/25 06:18:48;;;;;;;1.75;0.75;;;19.00;99.90;;;;;;20698084;28;20042;-80
2022/06/25 06:28:50;;;;;;;9.00;0.70;;;19.30;99.90;;;;;;20694350;28;20286;-80
2022/06/25 06:38:51;;;;;;;1.40;0.50;;;19.60;99.90;;;;;;20752475;28;20065;-80
2022/06/25 06:48:52;;;;;;;1.77;0.80;;;19.70;99.90;;;;;;20734826;28;20048;-80
2022/06/25 06:58:53;;;;;;;2.42;1.15;;;19.90;99.90;;;;;;20730979;28;20185;-79
2022/06/25 07:09:14;;;;;;;1.48;0.60;;;20.00;99.90;;;;;;20782564;28;20054;-78
2022/06/25 07:19:15;;;;;;;0.82;0.40;;;20.10;99.90;;;;;;20759242;28;20042;-79
2022/06/25 07:29:16;;;;;;;2.08;0.75;;;20.10;99.90;;;;;;20750589;28;20049;-79
2022/06/25 07:39:17;;;;;;;2.35;0.98;;;20.10;99.90;;;;;;20711222;28;20033;-79
2022/06/25 07:49:18;;;;;;;1.73;0.80;;;20.00;99.90;;;;;;20747805;28;20060;-79
2022/06/25 07:59:21;;;;;;;1.65;0.80;;;20.10;99.90;;;;;;20733248;28;20041;-79
2022/06/25 08:09:23;;;;;;;1.77;0.63;;;20.10;99.90;;;;;;20738732;28;20049;-79
2022/06/25 08:19:24;;;;;;;1.52;0.70;;;20.00;99.90;;;;;;20713618;28;20064;-78
2022/06/25 08:29:25;;;;;;;2.03;0.68;;;19.90;99.90;;;;;;20751227;28;20056;-79
2022/06/25 08:39:26;;;;;;;1.90;0.90;;;19.80;99.90;;;;;;20737771;28;20042;-79
2022/06/25 08:49:33;;;;;;;1.80;0.60;;;20.10;99.90;;;;;;20733875;28;20050;-79
2022/06/25 08:59:34;;;;;;;1.23;0.60;;;20.10;99.90;;;;;;20730497;28;20428;-80
2022/06/25 09:09:35;;;;;;;1.88;1.05;;;20.30;99.90;;;;;;20722117;28;20927;-80
2022/06/25 09:19:40;;;;;;;3.33;1.27;;;20.20;99.90;;;;;;20728990;28;20050;-80
2022/06/25 09:29:48;;;;;;;3.05;0.90;;;20.40;99.90;;;;;;20728039;28;20060;-81
2022/06/25 09:39:50;;;;;;;3.85;2.08;;;20.70;99.90;;;;;;20726887;28;20638;-83
2022/06/25 09:50:04;;;;;;;2.13;0.93;;;20.80;99.90;;;;;;20759003;28;20057;-80
2022/06/25 10:00:06;;;;;;;2.50;1.00;;;20.80;99.90;;;;;;20742334;28;20375;-80
2022/06/25 10:10:08;;;;;;;3.70;1.40;;;21.10;99.90;;;;;;20744997;28;20053;-81
2022/06/25 10:20:11;;;;;;;2.67;0.80;;;21.30;99.90;;;;;;20741886;28;20048;-81
2022/06/25 10:30:14;;;;;;;1.52;0.77;;;21.10;99.90;;;;;;20719523;28;20071;-81
2022/06/25 10:40:17;;;;;;;3.67;0.80;;;20.40;99.90;;;;;;20758408;28;20133;-81
2022/06/25 10:50:21;;;;;;;2.38;1.00;;;20.10;99.90;;;;;;20745578;28;20060;-80
2022/06/25 11:00:22;;;;;;;3.88;0.93;;;19.70;99.90;;;;;;20747105;28;20033;-80
2022/06/25 11:10:37;;;;;;;1.85;1.05;;;19.50;99.90;;;;;;20740858;28;20073;-81
2022/06/25 11:20:39;;;;;;;2.95;1.10;;;20.20;99.90;;;;;;20735039;28;20348;-80
2022/06/25 11:30:40;;;;;;;2.50;1.05;;;20.80;99.90;;;;;;20738008;28;20097;-80
2022/06/25 11:40:41;;;;;;;2.38;1.20;;;20.60;99.90;;;;;;20713030;28;20046;-80
2022/06/25 11:50:42;;;;;;;2.10;1.10;;;20.30;99.90;;;;;;20745260;28;20060;-83
2022/06/25 12:00:45;;;;;;;3.78;2.03;;;20.30;99.90;;;;;;20739484;28;20104;-80
2022/06/25 12:10:48;;;;;;;1.52;0.85;;;21.10;99.90;;;;;;20717336;28;20053;-80
2022/06/25 12:20:54;;;;;;;1.50;0.70;;;22.00;99.90;;;;;;20738022;28;20033;-80
2022/06/25 12:31:08;;;;;;;2.33;1.20;;;22.70;99.90;;;;;;20738327;28;20037;-80
2022/06/25 12:41:09;;;;;;;1.73;0.93;;;22.30;99.90;;;;;;20727141;28;20128;-80
2022/06/25 12:51:15;;;;;;;1.48;0.60;;;22.30;99.90;;;;;;20749230;28;20037;-80
2022/06/25 13:01:22;;;;;;;1.73;0.60;;;22.40;99.90;;;;;;20727180;28;20401;-79
2022/06/25 13:11:23;;;;;;;1.30;0.50;;;22.80;99.90;;;;;;20721658;28;20042;-79
2022/06/25 13:21:25;;;;;;;3.85;1.63;;;23.10;99.90;;;;;;20738567;28;20034;-79
2022/06/25 13:31:26;;;;;;;0.75;0.30;;;23.70;99.90;;;;;;20736019;28;20361;-79
2022/06/25 13:41:27;;;;;;;1.00;0.35;;;24.20;99.90;;;;;;20743989;28;20044;-79
2022/06/25 13:51:28;;;;;;;1.65;0.77;;;23.90;99.90;;;;;;20720698;28;20029;-79
2022/06/25 14:01:29;;;;;;;2.53;0.43;;;23.70;99.90;;;;;;20725236;28;20038;-79
2022/06/25 14:11:31;;;;;;;0.77;0.32;;;23.30;99.90;;;;;;20750274;28;20042;-79
2022/06/25 14:21:32;;;;;;;1.85;0.50;;;22.90;99.90;;;;;;20741422;28;20388;-79
2022/06/25 14:31:36;;;;;;;1.08;0.52;;;22.60;99.90;;;;;;20726354;28;20052;-80
2022/06/25 14:51:57;;;;;;;0.60;0.30;;;22.70;99.90;;;;;;20750216;28;20040;-80
2022/06/25 15:01:59;;;;;;;1.40;0.50;;;22.70;99.90;;;;;;20735582;28;20042;-79
2022/06/25 15:12:01;;;;;;;2.08;0.70;;;22.50;99.90;;;;;;20750495;28;20497;-79
2022/06/25 15:22:03;;;;;;;1.27;0.38;;;22.30;99.90;;;;;;20735721;28;20514;-80
2022/06/25 15:32:05;;;;;;;1.83;0.70;;;22.50;99.90;;;;;;20762088;28;20037;-80
2022/06/25 15:42:06;;;;;;;1.65;0.63;;;22.60;99.90;;;;;;20752858;28;20041;-79
2022/06/25 15:52:07;;;;;;;2.72;0.57;;;22.50;99.90;;;;;;20728703;28;20033;-80
2022/06/25 16:02:09;;;;;;;2.08;0.90;;;22.50;99.90;;;;;;20749035;28;20040;-79
2022/06/25 16:12:10;;;;;;;3.45;1.02;;;22.50;99.90;;;;;;20733249;28;20049;-79
2022/06/25 16:22:11;;;;;;;1.27;0.60;;;22.30;99.90;;;;;;20751146;28;20039;-79
2022/06/25 16:32:13;;;;;;;1.60;1.10;;;22.10;99.90;;;;;;20727012;28;20042;-78
2022/06/25 16:42:14;;;;;;;0.90;0.43;;;21.80;99.90;;;;;;20737564;28;20060;-79
2022/06/25 16:52:15;;;;;;;0.85;0.52;;;21.60;99.90;;;;;;20732214;28;20048;-80
2022/06/25 17:02:16;;;;;;;1.80;0.60;;;19.60;99.90;;;;;;20757326;28;20064;-79
2022/06/25 17:12:33;;;;;;;1.48;0.60;;;18.40;99.90;;;;;;20752684;28;20437;-80
2022/06/25 17:22:35;;;;;;;2.05;1.08;;;18.20;99.90;;;;;;20733341;28;20533;-79
2022/06/25 17:32:36;;;;;;;2.83;1.20;;;18.20;99.90;;;;;;20746573;28;20038;-79
2022/06/25 17:42:38;;;;;;;3.58;1.73;;;18.10;99.90;;;;;;20730144;28;20034;-80
2022/06/25 17:52:40;;;;;;;3.13;1.40;;;18.20;99.90;;;;;;20762534;28;20046;-79
2022/06/25 18:02:43;;;;;;;2.05;1.10;;;18.10;99.90;;;;;;20757884;28;20049;-79
2022/06/25 18:12:45;;;;;;;2.25;1.40;;;18.10;99.90;;;;;;20741097;28;20088;-80
2022/06/25 18:22:46;;;;;;;2.55;1.25;;;18.10;99.90;;;;;;20754041;28;20040;-80
2022/06/25 18:32:47;;;;;;;2.78;1.23;;;18.00;99.90;;;;;;20757711;28;20116;-80
2022/06/25 18:42:48;;;;;;;2.28;1.05;;;18.10;99.90;;;;;;20763123;28;20049;-80
2022/06/25 18:52:49;;;;;;;1.23;0.70;;;18.00;99.90;;;;;;20753075;28;20038;-80
2022/06/25 19:02:50;;;;;;;2.55;1.33;;;17.80;99.90;;;;;;20765820;28;20501;-80
2022/06/25 19:12:52;;;;;;;5.32;1.65;;;17.80;99.90;;;;;;20737102;28;20041;-80
2022/06/25 19:22:53;;;;;;;2.42;1.10;;;17.70;99.90;;;;;;20752715;28;20037;-80
2022/06/25 19:32:54;;;;;;;2.33;0.93;;;17.60;99.90;;;;;;20751333;28;20056;-80
2022/06/25 19:42:55;;;;;;;1.85;0.70;;;17.50;99.90;;;;;;20731863;28;20048;-80
2022/06/25 19:52:58;;;;;;;2.70;1.20;;;17.40;99.90;;;;;;20751722;28;20033;-80
2022/06/25 20:03:00;;;;;;;2.53;0.80;;;17.30;99.90;;;;;;20738398;28;20057;-80
2022/06/25 20:13:01;;;;;;;1.95;1.02;;;17.30;99.90;;;;;;20741745;28;20040;-79
2022/06/25 20:23:03;;;;;;;2.47;1.45;;;17.20;99.90;;;;;;20744038;28;20654;-80
2022/06/25 20:33:06;;;;;;;2.80;1.00;;;17.20;99.90;;;;;;20734617;28;20092;-80
2022/06/25 20:43:08;;;;;;;3.35;1.30;;;17.20;99.90;;;;;;20745577;28;20497;-80
2022/06/25 20:53:10;;;;;;;2.45;1.10;;;17.20;99.90;;;;;;20722564;28;20565;-80
2022/06/25 21:13:31;;;;;;;2.90;1.13;;;17.10;99.90;;;;;;20739789;28;20049;-80
2022/06/25 21:23:32;;;;;;;3.58;1.52;;;17.20;99.90;;;;;;20730670;28;20042;-80
2022/06/25 21:33:33;;;;;;;2.95;1.38;;;17.30;99.90;;;;;;20752811;28;20480;-80
2022/06/25 21:43:34;;;;;;;4.55;1.83;;;17.30;99.90;;;;;;20749538;28;20034;-81
2022/06/25 21:53:35;;;;;;;3.78;1.88;;;17.30;99.90;;;;;;20768107;28;20026;-80
2022/06/25 22:03:36;;;;;;;3.83;1.85;;;17.10;99.90;;;;;;20762788;28;20047;-81
2022/06/25 22:13:38;;;;;;;4.07;1.83;;;17.00;99.90;;;;;;20738701;28;20038;-82
2022/06/25 22:23:39;;;;;;;4.95;2.13;;;17.00;99.90;;;;;;20766941;28;20037;-79
2022/06/25 22:33:40;;;;;;;4.57;1.90;;;17.10;99.90;;;;;;20749394;28;20030;-80
2022/06/25 22:43:41;;;;;;;5.55;2.45;;;17.10;99.90;;;;;;20748764;28;20044;-79
2022/06/25 22:53:42;;;;;;;5.90;2.20;;;17.00;99.90;;;;;;20764330;28;20038;-80
2022/06/25 23:03:43;;;;;;;3.60;1.92;;;17.00;99.90;;;;;;20757580;28;20056;-81
2022/06/25 23:13:44;;;;;;;4.43;2.35;;;17.00;99.90;;;;;;20731778;28;20481;-81
2022/06/25 23:23:45;;;;;;;4.22;2.20;;;17.10;99.90;;;;;;20726779;28;20053;-81
2022/06/25 23:33:46;;;;;;;3.97;1.98;;;17.00;99.90;;;;;;20729474;28;20037;-81
2022/06/25 23:43:47;;;;;;;3.88;1.77;;;17.00;99.90;;;;;;20729910;28;20032;-80
2022/06/25 23:53:48;;;;;;;4.82;2.40;;;17.00;99.90;;;;;;20736437;28;20037;-80
